Time;durP1;ratioP1;P1;durP2;ratioP2;P2;SDS_P1;SDS_P2;PMS_P1;PMS_P2;Temp;Humidity;BMP_temperature;BMP_pressure;BME280_temperature;BME280_humidity;BME280_pressure;Samples;Min_cycle;Max_cycle;Signal;HPM_P1;HPM_P2
2022/10/29 00:01:28;;;;;;;10.13;9.53;;;;;;;8.14;79.76;93928.16;5070941;28;20212;-68
2022/10/29 00:03:54;;;;;;;11.13;8.67;;;;;;;8.29;79.59;93949.31;5082792;28;20225;-69
2022/10/29 00:06:19;;;;;;;9.93;9.30;;;;;;;8.18;80.59;93930.09;5090670;28;20184;-69
2022/10/29 00:08:45;;;;;;;8.67;8.17;;;;;;;8.03;80.70;93924.56;5082578;28;20281;-69
2022/10/29 00:11:15;;;;;;;9.20;8.77;;;;;;;8.19;80.19;93941.25;5071137;28;20185;-70
2022/10/29 00:13:42;;;;;;;9.53;8.73;;;;;;;8.09;80.35;93922.88;5069341;28;20253;-72
2022/10/29 00:16:13;;;;;;;10.00;9.37;;;;;;;8.05;81.39;93935.53;5071545;28;20182;-70
2022/10/29 00:18:39;;;;;;;10.83;10.27;;;;;;;8.12;81.06;93935.41;5069947;28;20244;-72
2022/10/29 00:21:07;;;;;;;10.07;9.47;;;;;;;7.95;80.64;93892.97;5071517;28;20232;-72
2022/10/29 00:23:33;;;;;;;11.27;10.60;;;;;;;8.26;79.94;93931.56;5084275;28;20233;-71
2022/10/29 00:25:59;;;;;;;9.93;9.23;;;;;;;8.27;79.84;93933.13;5069942;28;20190;-71
2022/10/29 00:28:26;;;;;;;9.57;8.97;;;;;;;8.15;80.42;93925.31;5073231;28;20235;-71
2022/10/29 00:30:51;;;;;;;11.10;10.40;;;;;;;8.07;80.69;93912.72;5079106;28;20217;-71
2022/10/29 00:33:18;;;;;;;9.53;9.13;;;;;;;8.15;80.14;93898.53;5080078;28;20221;-71
2022/10/29 00:35:58;;;;;;;9.80;9.40;;;;;;;8.22;80.02;93908.81;5070693;28;20177;-70
2022/10/29 00:38:23;;;;;;;9.13;8.70;;;;;;;8.10;81.69;93912.25;5075373;28;20284;-71
2022/10/29 00:40:49;;;;;;;9.87;9.37;;;;;;;8.16;81.63;93906.13;5089949;28;20262;-70
2022/10/29 00:43:16;;;;;;;9.73;9.30;;;;;;;8.47;80.10;93904.88;5090777;28;20251;-70
2022/10/29 00:45:48;;;;;;;8.90;8.60;;;;;;;8.34;79.88;93899.97;5089765;28;20192;-70
2022/10/29 00:48:13;;;;;;;9.63;8.93;;;;;;;8.26;80.16;93895.13;5085875;28;20229;-71
2022/10/29 00:50:38;;;;;;;9.80;9.30;;;;;;;8.28;80.75;93887.09;5070107;28;20193;-71
2022/10/29 00:53:04;;;;;;;9.87;9.37;;;;;;;8.35;80.35;93898.13;5071921;28;20216;-71
2022/10/29 00:55:30;;;;;;;9.63;9.13;;;;;;;8.40;79.83;93890.44;5090364;28;20173;-70
2022/10/29 00:57:57;;;;;;;9.03;8.67;;;;;;;8.34;80.78;93901.78;5090153;28;20227;-70
2022/10/29 01:00:22;;;;;;;9.93;9.30;;;;;;;8.26;82.12;93902.16;5090959;28;20220;-70
2022/10/29 01:02:48;;;;;;;8.43;8.03;;;;;;;8.24;82.22;93911.97;5089613;28;20524;-72
2022/10/29 01:05:20;;;;;;;8.03;7.73;;;;;;;8.30;81.19;93916.25;5088217;28;20192;-70
2022/10/29 01:07:46;;;;;;;9.83;9.23;;;;;;;8.24;81.02;93912.78;5089566;28;20210;-72
2022/10/29 01:10:12;;;;;;;8.80;8.40;;;;;;;8.24;80.51;93907.59;5089251;28;20177;-70
2022/10/29 01:13:12;;;;;;;9.40;8.80;;;;;;;8.15;79.82;93911.53;5089289;28;20189;-71
2022/10/29 01:16:18;;;;;;;9.70;9.20;;;;;;;8.23;79.43;93887.00;5089556;28;20200;-71
2022/10/29 01:18:57;;;;;;;8.60;8.20;;;;;;;8.17;79.87;93889.47;5077805;28;20907;-71
2022/10/29 01:21:44;;;;;;;8.23;7.90;;;;;;;8.28;79.38;93889.69;5090164;28;20214;-71
2022/10/29 01:24:38;;;;;;;8.77;8.40;;;;;;;8.29;79.11;93889.47;5088341;28;20235;-71
2022/10/29 01:27:40;;;;;;;9.30;8.83;;;;;;;8.30;78.46;93877.22;5104793;28;20221;-71
2022/10/29 01:30:18;;;;;;;8.30;7.90;;;;;;;8.15;80.09;93869.94;5087899;28;20216;-71
2022/10/29 01:32:43;;;;;;;9.17;8.70;;;;;;;8.07;80.93;93867.69;5089100;28;20192;-71
2022/10/29 01:35:15;;;;;;;9.30;8.90;;;;;;;7.95;81.42;93859.16;5089666;28;20853;-71
2022/10/29 01:38:13;;;;;;;9.80;9.23;;;;;;;7.94;83.11;93871.34;5102648;28;20216;-72
2022/10/29 01:40:44;;;;;;;9.17;8.67;;;;;;;8.00;83.09;93870.44;5068064;28;20265;-71
2022/10/29 01:43:26;;;;;;;9.80;9.00;;;;;;;8.10;81.57;93870.63;5085949;28;20292;-71
2022/10/29 01:45:58;;;;;;;9.93;9.43;;;;;;;7.84;82.49;93839.94;5067718;28;20200;-71
2022/10/29 01:48:33;;;;;;;10.07;9.57;;;;;;;8.13;81.73;93870.16;5068843;28;20225;-71
2022/10/29 01:51:03;;;;;;;10.00;9.43;;;;;;;8.22;81.55;93878.38;5069061;28;20207;-71
2022/10/29 01:53:32;;;;;;;9.63;9.23;;;;;;;8.16;81.18;93874.91;5069170;28;20245;-71
2022/10/29 01:55:57;;;;;;;8.70;8.30;;;;;;;8.12;79.96;93873.75;5069989;28;20209;-72
2022/10/29 01:58:24;;;;;;;10.37;9.87;;;;;;;8.25;79.35;93874.56;5072629;28;20225;-71
2022/10/29 02:01:11;;;;;;;9.43;9.03;;;;;;;8.06;81.53;93864.28;5077842;28;20207;-71
2022/10/29 02:03:49;;;;;;;9.47;8.83;;;;;;;8.09;82.24;93857.84;5075311;28;20241;-71
2022/10/29 02:06:32;;;;;;;9.27;8.87;;;;;;;7.88;82.62;93856.69;5068937;28;20189;-68
2022/10/29 02:09:10;;;;;;;8.43;7.93;;;;;;;7.90;81.68;93862.44;5079446;28;20216;-69
2022/10/29 02:11:45;;;;;;;9.03;8.63;;;;;;;7.90;81.45;93853.84;5088361;28;20211;-67
2022/10/29 02:15:05;;;;;;;8.00;7.63;;;;;;;7.91;81.63;93861.41;5085939;28;20223;-70
2022/10/29 02:17:32;;;;;;;8.80;8.40;;;;;;;7.91;82.23;93861.41;5046692;28;20189;-69
2022/10/29 02:19:57;;;;;;;9.93;9.47;;;;;;;7.94;81.45;93860.16;5060746;28;20260;-68
2022/10/29 02:22:23;;;;;;;9.40;8.90;;;;;;;7.82;81.17;93852.41;5069081;28;20197;-69
2022/10/29 02:24:49;;;;;;;9.67;9.13;;;;;;;7.94;80.50;93847.94;5068211;28;20224;-69
2022/10/29 02:27:14;;;;;;;8.17;7.83;;;;;;;7.90;80.31;93844.25;5069163;28;20242;-68
2022/10/29 02:29:40;;;;;;;11.07;10.27;;;;;;;8.01;80.23;93843.41;5068404;28;20244;-70
2022/10/29 02:32:05;;;;;;;9.50;9.10;;;;;;;7.89;80.19;93834.84;5068996;28;20197;-70
2022/10/29 02:34:30;;;;;;;8.70;8.33;;;;;;;7.85;80.77;93833.75;5068557;28;20293;-70
2022/10/29 02:36:56;;;;;;;9.03;8.57;;;;;;;7.78;81.75;93829.72;5068953;28;20185;-70
2022/10/29 02:39:21;;;;;;;8.20;7.90;;;;;;;7.80;82.33;93843.25;5068023;28;20260;-70
2022/10/29 02:41:46;;;;;;;8.13;7.73;;;;;;;7.89;80.93;93844.47;5067952;28;20196;-70
2022/10/29 02:44:12;;;;;;;8.53;8.23;;;;;;;7.87;81.18;93839.50;5101224;28;20236;-71
2022/10/29 02:46:39;;;;;;;8.70;8.20;;;;;;;7.84;80.86;93847.75;5068968;28;20215;-70
2022/10/29 02:49:05;;;;;;;10.77;10.10;;;;;;;7.64;81.64;93836.97;5082037;28;20263;-69
2022/10/29 02:51:31;;;;;;;9.93;9.23;;;;;;;7.78;80.86;93840.88;5095211;28;20199;-70
2022/10/29 02:53:56;;;;;;;9.37;8.77;;;;;;;7.80;81.19;93851.84;5081805;28;20300;-70
2022/10/29 02:56:21;;;;;;;10.10;9.57;;;;;;;7.64;82.08;93841.38;5072895;28;20197;-71
2022/10/29 02:58:47;;;;;;;9.47;8.87;;;;;;;7.69;82.15;93844.06;5070906;28;20280;-70
2022/10/29 03:01:12;;;;;;;9.80;9.00;;;;;;;7.77;81.95;93834.09;5072997;28;20213;-70
2022/10/29 03:03:37;;;;;;;9.20;8.70;;;;;;;7.57;82.42;93828.53;5072591;28;20253;-70
2022/10/29 03:06:03;;;;;;;9.77;9.07;;;;;;;7.64;82.28;93833.59;5071547;28;20250;-70
2022/10/29 03:08:28;;;;;;;10.37;9.70;;;;;;;7.56;82.09;93839.94;5072120;28;20260;-71
2022/10/29 03:10:54;;;;;;;9.73;9.20;;;;;;;7.44;83.37;93831.38;5072828;28;20202;-70
2022/10/29 03:13:20;;;;;;;9.40;9.00;;;;;;;7.50;83.05;93827.84;5071322;28;20233;-70
2022/10/29 03:15:45;;;;;;;8.90;8.50;;;;;;;7.43;83.53;93840.19;5070745;28;20219;-70
2022/10/29 03:18:11;;;;;;;10.40;9.67;;;;;;;7.30;84.10;93840.44;5072007;28;20266;-70
2022/10/29 03:20:37;;;;;;;9.67;9.17;;;;;;;7.37;84.48;93827.31;5071454;28;20216;-71
2022/10/29 03:23:02;;;;;;;8.73;8.30;;;;;;;7.46;84.13;93828.53;5073166;28;20245;-70
2022/10/29 03:25:28;;;;;;;8.63;8.23;;;;;;;7.37;85.18;93824.72;5082788;28;20173;-70
2022/10/29 03:27:53;;;;;;;9.23;8.53;;;;;;;7.32;86.07;93828.00;5081852;28;20229;-70
2022/10/29 03:30:18;;;;;;;8.67;8.20;;;;;;;7.33;85.35;93826.97;5072448;28;20227;-70
2022/10/29 03:32:47;;;;;;;9.10;8.60;;;;;;;7.52;85.04;93825.00;5071158;28;20264;-70
2022/10/29 03:35:14;;;;;;;8.13;7.77;;;;;;;7.29;85.69;93815.47;5079169;28;20197;-70
2022/10/29 03:37:39;;;;;;;8.93;8.53;;;;;;;7.34;85.93;93820.78;5077652;28;20211;-70
2022/10/29 03:40:06;;;;;;;8.50;8.07;;;;;;;7.37;85.77;93816.94;5091129;28;20236;-70
2022/10/29 03:42:32;;;;;;;9.17;8.77;;;;;;;7.36;85.22;93810.94;5124929;28;20181;-70
2022/10/29 03:44:58;;;;;;;8.63;8.23;;;;;;;7.31;85.79;93813.44;5090266;28;20212;-71
2022/10/29 03:47:23;;;;;;;9.77;9.20;;;;;;;7.36;86.19;93816.13;5092362;28;20192;-70
2022/10/29 03:49:49;;;;;;;9.03;8.63;;;;;;;7.35;86.11;93813.75;5091600;28;20224;-69
2022/10/29 03:52:14;;;;;;;9.30;8.70;;;;;;;7.33;85.82;93811.38;5091954;28;20177;-70
2022/10/29 03:54:39;;;;;;;8.80;8.50;;;;;;;7.33;86.26;93808.03;5074080;28;20221;-70
2022/10/29 03:57:05;;;;;;;8.50;8.10;;;;;;;7.12;87.00;93793.03;5071452;28;20177;-70
2022/10/29 03:59:30;;;;;;;8.77;8.43;;;;;;;7.05;87.16;93792.38;5076130;28;20236;-70
2022/10/29 04:01:55;;;;;;;9.13;8.50;;;;;;;7.23;86.85;93811.19;5082407;28;20181;-71
2022/10/29 04:04:21;;;;;;;9.03;8.53;;;;;;;7.22;87.07;93819.22;5070064;28;20236;-70
2022/10/29 04:06:46;;;;;;;9.13;8.73;;;;;;;7.15;87.28;93824.53;5072421;28;20617;-69
2022/10/29 04:09:11;;;;;;;9.20;8.70;;;;;;;7.20;87.19;93831.63;5070293;28;20229;-71
2022/10/29 04:11:37;;;;;;;9.77;9.27;;;;;;;7.19;87.01;93830.84;5071373;28;20205;-70
2022/10/29 04:14:02;;;;;;;8.30;7.87;;;;;;;7.11;87.04;93825.22;5082392;28;20247;-70
2022/10/29 04:16:28;;;;;;;8.93;8.53;;;;;;;7.09;87.17;93820.25;5090657;28;20208;-71
2022/10/29 04:18:53;;;;;;;9.87;9.47;;;;;;;7.08;87.55;93825.66;5090414;28;20248;-70
2022/10/29 04:21:18;;;;;;;9.83;9.23;;;;;;;6.83;88.47;93818.13;5091333;28;20240;-70
2022/10/29 04:23:44;;;;;;;10.53;10.03;;;;;;;6.88;88.85;93823.41;5090690;28;20255;-70
2022/10/29 04:26:09;;;;;;;11.90;11.20;;;;;;;6.97;88.19;93827.25;5089779;28;20189;-70
2022/10/29 04:28:35;;;;;;;10.93;10.23;;;;;;;6.84;88.61;93811.91;5085821;28;20235;-69
2022/10/29 04:31:09;;;;;;;12.27;11.47;;;;;;;6.78;89.61;93833.56;5079663;28;20208;-70
2022/10/29 04:33:35;;;;;;;10.43;9.73;;;;;;;6.55;90.24;93821.34;5075466;28;20255;-70
2022/10/29 04:36:00;;;;;;;11.43;10.63;;;;;;;6.62;89.49;93823.06;5070802;28;20189;-69
2022/10/29 04:38:26;;;;;;;11.17;10.17;;;;;;;6.65;89.74;93836.38;5070270;28;20233;-69
2022/10/29 04:40:51;;;;;;;9.90;9.17;;;;;;;6.75;89.26;93844.41;5070462;28;20276;-71
2022/10/29 04:43:16;;;;;;;10.50;9.83;;;;;;;6.53;89.94;93835.56;5073387;28;20256;-71
2022/10/29 04:45:42;;;;;;;10.50;9.80;;;;;;;6.68;89.89;93838.53;5078422;28;20208;-70
2022/10/29 04:48:07;;;;;;;11.17;10.37;;;;;;;6.54;90.95;93831.97;5075797;28;20217;-70
2022/10/29 04:50:35;;;;;;;11.37;10.50;;;;;;;6.57;90.19;93815.19;5069986;28;20197;-71
2022/10/29 04:53:03;;;;;;;11.27;10.20;;;;;;;6.62;90.23;93834.22;5071298;28;20236;-71
2022/10/29 04:55:28;;;;;;;11.50;10.60;;;;;;;6.50;90.38;93823.06;5075515;28;20191;-70
2022/10/29 04:57:54;;;;;;;11.67;10.87;;;;;;;6.58;90.47;93838.31;5076236;28;20221;-69
2022/10/29 05:00:20;;;;;;;12.07;11.07;;;;;;;6.57;90.26;93836.69;5070738;28;20224;-70
2022/10/29 05:02:49;;;;;;;10.13;9.63;;;;;;;6.44;90.21;93821.34;5070849;28;20193;-70
2022/10/29 05:05:18;;;;;;;11.47;10.67;;;;;;;6.57;90.15;93841.88;5089714;28;20252;-70
2022/10/29 05:07:44;;;;;;;10.97;9.90;;;;;;;6.69;90.11;93834.13;5088952;28;20195;-70
2022/10/29 05:10:09;;;;;;;11.30;10.50;;;;;;;6.71;90.26;93837.31;5080260;28;20181;-70
2022/10/29 05:12:35;;;;;;;12.37;11.37;;;;;;;6.74;90.22;93835.03;5083455;28;20188;-69
2022/10/29 05:15:00;;;;;;;11.73;10.57;;;;;;;6.55;91.41;93823.19;5071460;28;20256;-70
2022/10/29 05:17:26;;;;;;;11.00;10.23;;;;;;;6.70;90.81;93836.50;5068125;28;20193;-70
2022/10/29 05:19:51;;;;;;;10.40;9.77;;;;;;;6.80;90.58;93831.56;5076962;28;20260;-71
2022/10/29 05:22:16;;;;;;;10.83;10.10;;;;;;;6.75;90.53;93843.59;5073724;28;20469;-70
2022/10/29 05:24:42;;;;;;;10.37;9.77;;;;;;;6.71;89.92;93801.75;5068377;28;20221;-71
2022/10/29 05:27:08;;;;;;;10.73;10.03;;;;;;;6.94;90.18;93832.09;5066990;28;20186;-70
2022/10/29 05:29:33;;;;;;;10.90;10.40;;;;;;;6.92;90.38;93836.72;5081123;28;20284;-71
2022/10/29 05:31:58;;;;;;;10.70;10.00;;;;;;;6.98;89.96;93841.00;5085780;28;20193;-71
2022/10/29 05:34:24;;;;;;;9.87;9.07;;;;;;;7.02;90.46;93855.91;5071356;28;21989;-70
2022/10/29 05:36:49;;;;;;;10.23;9.67;;;;;;;7.05;90.36;93852.84;5068903;28;20190;-70
2022/10/29 05:39:15;;;;;;;11.37;10.37;;;;;;;7.13;90.57;93855.13;5067316;28;20237;-70
2022/10/29 05:41:40;;;;;;;11.23;10.27;;;;;;;7.11;90.83;93836.41;5066523;28;20211;-71
2022/10/29 05:44:05;;;;;;;11.33;10.27;;;;;;;7.35;90.23;93860.53;5078771;28;20224;-69
2022/10/29 05:46:31;;;;;;;12.17;11.17;;;;;;;7.40;89.70;93843.25;5088625;28;20192;-69
2022/10/29 05:48:56;;;;;;;11.83;10.93;;;;;;;7.50;89.77;93850.47;5087134;28;20231;-69
2022/10/29 05:51:22;;;;;;;12.73;11.53;;;;;;;7.57;89.62;93851.91;5088594;28;20204;-69
2022/10/29 05:53:47;;;;;;;11.60;10.10;;;;;;;7.65;89.40;93851.56;5079118;28;20240;-69
2022/10/29 05:56:12;;;;;;;12.13;11.03;;;;;;;7.73;89.99;93869.41;5068126;28;20217;-71
2022/10/29 05:58:38;;;;;;;13.17;11.97;;;;;;;7.86;89.69;93870.94;5075453;28;20216;-70
2022/10/29 06:01:10;;;;;;;18.43;14.13;;;;;;;7.93;89.20;93869.78;5087974;28;20216;-69
2022/10/29 06:03:37;;;;;;;13.80;12.60;;;;;;;8.00;89.23;93869.63;5088019;28;20228;-68
2022/10/29 06:06:02;;;;;;;15.03;13.77;;;;;;;8.08;89.06;93864.84;5089062;28;20210;-68
2022/10/29 06:08:27;;;;;;;14.43;12.80;;;;;;;8.00;89.65;93869.63;5088029;28;20248;-70
2022/10/29 06:10:53;;;;;;;18.03;14.03;;;;;;;8.10;89.53;93886.22;5086843;28;20252;-69
2022/10/29 06:13:20;;;;;;;23.10;15.93;;;;;;;8.17;89.16;93876.47;5088288;28;20224;-68
2022/10/29 06:15:47;;;;;;;26.73;16.67;;;;;;;8.25;88.74;93882.38;5087405;28;20213;-70
2022/10/29 06:18:12;;;;;;;19.67;15.60;;;;;;;8.42;88.05;93888.41;5088445;28;20269;-69
2022/10/29 06:20:38;;;;;;;16.40;14.63;;;;;;;8.50;87.48;93890.63;5088154;28;20205;-69
2022/10/29 06:23:04;;;;;;;16.00;13.13;;;;;;;8.57;87.23;93892.06;5087303;28;20236;-69
2022/10/29 06:25:29;;;;;;;13.50;12.30;;;;;;;8.72;86.56;93892.28;5088203;28;20193;-69
2022/10/29 06:28:04;;;;;;;15.13;13.60;;;;;;;8.77;86.17;93881.97;5087763;28;20192;-68
2022/10/29 06:30:31;;;;;;;14.30;13.07;;;;;;;8.85;85.71;93873.78;5086623;28;20248;-68
2022/10/29 06:32:57;;;;;;;14.20;12.70;;;;;;;9.00;85.22;93858.38;5084324;28;20188;-70
2022/10/29 06:35:23;;;;;;;14.50;12.03;;;;;;;9.15;84.36;93857.81;5075841;28;20204;-69
2022/10/29 06:37:49;;;;;;;15.03;13.53;;;;;;;9.31;84.43;93870.00;5077590;28;21070;-69
2022/10/29 06:40:14;;;;;;;22.00;12.97;;;;;;;9.56;83.65;93867.75;5068391;28;20213;-69
2022/10/29 06:42:40;;;;;;;13.63;12.20;;;;;;;9.73;81.66;93853.63;5067846;28;20181;-73
2022/10/29 06:45:06;;;;;;;12.40;11.20;;;;;;;9.79;81.68;93872.72;5087661;28;20227;-70
2022/10/29 06:47:40;;;;;;;16.10;13.47;;;;;;;9.66;82.28;93862.69;5087471;28;20180;-67
2022/10/29 06:50:07;;;;;;;14.17;12.63;;;;;;;9.63;82.72;93856.09;5087732;28;20204;-69
2022/10/29 06:52:33;;;;;;;16.13;14.53;;;;;;;9.70;83.03;93872.38;5087336;28;20195;-69
2022/10/29 06:55:01;;;;;;;18.33;14.53;;;;;;;9.85;81.94;93861.34;5079038;28;20229;-68
2022/10/29 06:57:26;;;;;;;14.90;13.30;;;;;;;9.84;81.92;93861.59;5072483;28;20201;-68
2022/10/29 06:59:52;;;;;;;16.23;13.73;;;;;;;9.85;83.28;93882.22;5068868;28;20228;-70
2022/10/29 07:02:19;;;;;;;16.50;14.13;;;;;;;9.95;83.23;93874.50;5067059;28;20236;-68
2022/10/29 07:04:44;;;;;;;14.67;13.23;;;;;;;9.94;83.17;93879.97;5074343;28;20300;-68
2022/10/29 07:07:10;;;;;;;16.60;13.33;;;;;;;10.18;81.03;93879.47;5077719;28;20194;-68
2022/10/29 07:09:35;;;;;;;16.90;15.20;;;;;;;10.24;80.70;93893.41;5068554;28;20268;-68
2022/10/29 07:12:01;;;;;;;16.17;14.83;;;;;;;10.29;79.46;93888.22;5066764;28;20219;-69
2022/10/29 07:14:26;;;;;;;24.50;15.30;;;;;;;10.04;80.75;93895.75;5081254;28;20248;-69
2022/10/29 07:16:52;;;;;;;23.63;16.27;;;;;;;10.15;79.99;93894.88;5087386;28;20260;-68
2022/10/29 07:19:17;;;;;;;21.40;16.00;;;;;;;10.02;80.34;93895.19;5079373;28;20239;-68
2022/10/29 07:21:42;;;;;;;20.50;18.30;;;;;;;9.90;81.53;93897.13;5074347;28;20204;-68
2022/10/29 07:24:08;;;;;;;19.77;16.00;;;;;;;10.05;81.14;93905.94;5069180;28;20263;-68
2022/10/29 07:26:34;;;;;;;18.43;15.90;;;;;;;10.15;80.47;93900.84;5067863;28;20186;-69
2022/10/29 07:29:00;;;;;;;17.37;15.67;;;;;;;10.23;80.16;93903.03;5071144;28;20218;-70
2022/10/29 07:31:25;;;;;;;22.87;15.43;;;;;;;10.26;79.92;93899.94;5074863;28;20727;-69
2022/10/29 07:33:50;;;;;;;18.47;15.27;;;;;;;10.11;80.43;93901.59;5072151;28;20221;-69
2022/10/29 07:36:16;;;;;;;20.87;14.73;;;;;;;10.33;80.61;93900.56;5069518;28;20190;-68
2022/10/29 07:38:41;;;;;;;24.47;15.97;;;;;;;10.66;78.55;93904.78;5069209;28;20221;-69
2022/10/29 07:41:07;;;;;;;18.00;15.20;;;;;;;10.71;78.24;93892.56;5079774;28;20216;-68
2022/10/29 07:43:32;;;;;;;20.60;15.17;;;;;;;10.77;78.08;93902.00;5075583;28;20229;-69
2022/10/29 07:45:57;;;;;;;20.20;16.47;;;;;;;10.92;77.24;93896.94;5069839;28;20190;-68
2022/10/29 07:48:23;;;;;;;17.60;15.80;;;;;;;10.86;77.52;93903.13;5074319;28;20221;-67
2022/10/29 07:50:49;;;;;;;20.30;15.07;;;;;;;10.93;76.73;93902.94;5090200;28;20192;-68
2022/10/29 07:53:14;;;;;;;16.93;15.17;;;;;;;11.08;76.17;93896.00;5084750;28;20225;-71
2022/10/29 07:55:40;;;;;;;18.37;16.03;;;;;;;11.10;75.61;93880.88;5070701;28;20260;-68
2022/10/29 07:58:09;;;;;;;17.50;15.83;;;;;;;11.38;74.88;93897.28;5069376;28;20285;-71
2022/10/29 08:00:36;;;;;;;17.33;15.67;;;;;;;11.09;76.58;93881.13;5071357;28;20209;-68
2022/10/29 08:03:01;;;;;;;17.97;14.87;;;;;;;11.64;74.66;93888.59;5069605;28;20255;-67
2022/10/29 08:05:29;;;;;;;17.20;15.27;;;;;;;11.61;74.42;93894.28;5070587;28;20206;-69
2022/10/29 08:07:54;;;;;;;20.10;15.43;;;;;;;11.55;75.16;93890.06;5071667;28;20182;-65
2022/10/29 08:10:21;;;;;;;20.37;16.23;;;;;;;11.22;75.61;93851.97;5090226;28;20197;-68
2022/10/29 08:12:48;;;;;;;18.53;15.20;;;;;;;11.63;74.54;93900.06;5090735;28;20215;-67
2022/10/29 08:15:14;;;;;;;20.13;15.57;;;;;;;11.91;73.69;93902.31;5090054;28;20186;-67
2022/10/29 08:17:39;;;;;;;17.07;15.33;;;;;;;11.87;74.63;93899.44;5090681;28;20225;-67
2022/10/29 08:20:05;;;;;;;19.70;16.70;;;;;;;11.75;73.84;93890.97;5088958;28;20228;-67
2022/10/29 08:22:30;;;;;;;17.77;16.00;;;;;;;11.82;73.74;93898.59;5089998;28;20242;-67
2022/10/29 08:24:56;;;;;;;20.23;15.43;;;;;;;11.98;73.38;93889.81;5089817;28;20245;-67
2022/10/29 08:27:21;;;;;;;20.30;16.20;;;;;;;12.14;73.27;93889.59;5089740;28;20215;-67
2022/10/29 08:29:46;;;;;;;22.70;16.03;;;;;;;12.22;73.35;93894.34;5088127;28;20221;-67
2022/10/29 08:32:12;;;;;;;20.63;16.47;;;;;;;12.34;73.63;93883.66;5088926;28;20193;-68
2022/10/29 08:34:37;;;;;;;17.90;16.10;;;;;;;12.51;72.13;93884.22;5078168;28;20223;-67
2022/10/29 08:37:02;;;;;;;18.90;16.67;;;;;;;12.62;72.98;93880.59;5077962;28;20185;-68
2022/10/29 08:39:28;;;;;;;16.83;15.10;;;;;;;12.88;71.25;93887.41;5070917;28;20233;-68
2022/10/29 08:41:56;;;;;;;17.90;16.10;;;;;;;13.09;70.46;93889.03;5069934;28;20225;-67
2022/10/29 08:44:32;;;;;;;17.83;16.00;;;;;;;13.22;70.43;93885.88;5066498;28;20222;-68
2022/10/29 08:47:14;;;;;;;23.90;15.40;;;;;;;13.42;68.90;93888.50;5092843;28;20203;-67
2022/10/29 08:49:50;;;;;;;19.13;15.20;;;;;;;13.27;68.37;93885.91;5085006;28;20321;-68
2022/10/29 08:52:23;;;;;;;19.50;15.47;;;;;;;13.34;67.67;93889.03;5089300;28;20203;-70
2022/10/29 08:55:01;;;;;;;17.40;15.83;;;;;;;13.57;67.22;93883.22;5080557;28;20225;-68
2022/10/29 08:57:30;;;;;;;22.37;14.97;;;;;;;13.47;68.60;93874.59;5075240;28;20256;-69
2022/10/29 09:00:06;;;;;;;20.47;15.33;;;;;;;13.45;67.13;93880.09;5069802;28;20292;-68
2022/10/29 09:02:31;;;;;;;21.47;15.53;;;;;;;13.43;67.82;93879.56;5068645;28;20185;-66
2022/10/29 09:04:58;;;;;;;19.87;16.10;;;;;;;13.86;66.49;93871.09;5077188;28;20239;-67
2022/10/29 09:07:50;;;;;;;22.10;15.87;;;;;;;14.14;65.74;93867.84;5079487;28;20189;-67
2022/10/29 09:10:31;;;;;;;21.60;15.77;;;;;;;14.13;65.04;93858.38;5068527;28;20229;-67
2022/10/29 09:13:24;;;;;;;17.37;14.07;;;;;;;14.07;65.58;93858.69;5068692;28;20197;-66
2022/10/29 09:16:12;;;;;;;20.13;15.03;;;;;;;14.35;64.48;93871.97;5070041;28;20922;-66
2022/10/29 09:18:46;;;;;;;16.17;14.47;;;;;;;14.50;63.41;93881.63;5068137;28;20224;-68
2022/10/29 09:21:27;;;;;;;17.93;14.93;;;;;;;14.64;62.43;93876.53;5070076;28;20221;-67
2022/10/29 09:24:10;;;;;;;21.03;15.57;;;;;;;14.78;62.16;93880.13;5079330;28;20232;-67
2022/10/29 09:26:42;;;;;;;16.67;14.97;;;;;;;14.62;62.71;93874.19;5089028;28;20199;-67
2022/10/29 09:29:32;;;;;;;22.07;16.97;;;;;;;14.43;64.10;93871.41;5083855;28;20235;-67
2022/10/29 09:32:10;;;;;;;21.40;16.73;;;;;;;14.34;64.22;93864.34;5078995;28;20201;-66
2022/10/29 09:34:55;;;;;;;19.87;15.73;;;;;;;14.51;63.58;93871.91;5071691;28;20284;-67
2022/10/29 09:37:44;;;;;;;19.80;16.20;;;;;;;14.52;63.43;93864.53;5069386;28;20185;-66
2022/10/29 09:40:37;;;;;;;20.87;14.33;;;;;;;14.68;63.01;93867.06;5068701;28;20367;-67
2022/10/29 09:43:12;;;;;;;24.43;15.00;;;;;;;14.76;62.17;93859.38;5065772;28;20237;-68
2022/10/29 09:45:53;;;;;;;16.93;15.23;;;;;;;14.85;61.92;93855.09;5068393;28;20184;-69
2022/10/29 09:48:30;;;;;;;16.57;14.97;;;;;;;14.85;62.52;93857.75;5069649;28;20236;-67
2022/10/29 09:51:08;;;;;;;16.63;14.33;;;;;;;14.82;62.22;93854.88;5075847;28;20180;-69
2022/10/29 09:53:34;;;;;;;14.90;13.33;;;;;;;14.87;61.67;93844.31;5072760;28;20233;-68
2022/10/29 09:56:00;;;;;;;16.37;14.73;;;;;;;15.15;61.03;93841.72;5070043;28;20723;-68
2022/10/29 09:58:27;;;;;;;14.37;12.70;;;;;;;15.20;60.06;93835.66;5073458;28;20233;-70
2022/10/29 10:00:55;;;;;;;18.97;14.70;;;;;;;15.38;59.15;93846.28;5088611;28;20204;-68
2022/10/29 10:03:29;;;;;;;17.93;13.83;;;;;;;15.31;61.96;93834.50;5088469;28;20254;-68
2022/10/29 10:06:09;;;;;;;15.63;12.60;;;;;;;15.65;58.91;93837.88;5089756;28;20187;-69
2022/10/29 10:09:05;;;;;;;14.70;12.50;;;;;;;15.99;57.06;93835.91;5087974;28;20240;-69
2022/10/29 10:11:41;;;;;;;13.93;11.87;;;;;;;15.79;58.26;93831.66;5087167;28;20242;-68
2022/10/29 10:14:16;;;;;;;10.80;9.90;;;;;;;15.64;57.86;93828.41;5086982;28;20224;-68
2022/10/29 10:16:42;;;;;;;12.67;10.60;;;;;;;15.54;58.23;93818.78;5088234;28;20255;-68
2022/10/29 10:19:25;;;;;;;9.40;8.90;;;;;;;15.83;56.99;93818.72;5087514;28;20220;-68
2022/10/29 10:21:58;;;;;;;10.77;9.67;;;;;;;15.68;57.39;93810.97;5087290;28;20238;-68
2022/10/29 10:24:40;;;;;;;9.83;9.10;;;;;;;15.85;57.02;93809.47;5081219;28;20225;-69
2022/10/29 10:27:17;;;;;;;9.50;8.80;;;;;;;15.84;56.86;93807.13;5078104;28;20812;-68
2022/10/29 10:29:43;;;;;;;10.17;9.33;;;;;;;15.70;58.05;93801.72;5068320;28;20254;-67
2022/10/29 10:32:15;;;;;;;11.03;10.20;;;;;;;15.93;57.21;93794.91;5067207;28;20204;-68
2022/10/29 10:34:41;;;;;;;9.83;9.23;;;;;;;16.11;56.08;93796.00;5072988;28;20287;-67
2022/10/29 10:37:09;;;;;;;10.67;9.80;;;;;;;16.05;57.39;93797.91;5075040;28;20193;-68
2022/10/29 10:39:42;;;;;;;11.10;10.30;;;;;;;16.09;56.85;93794.41;5069850;28;20297;-67
2022/10/29 10:42:18;;;;;;;11.40;10.50;;;;;;;16.60;53.95;93783.22;5067323;28;20201;-68
2022/10/29 10:44:51;;;;;;;10.10;9.50;;;;;;;16.28;55.77;93772.59;5084843;28;20216;-67
2022/10/29 10:47:19;;;;;;;14.20;12.87;;;;;;;16.29;54.78;93782.84;5087367;28;20188;-68
2022/10/29 10:49:44;;;;;;;9.90;9.40;;;;;;;16.07;54.81;93766.78;5088196;28;20216;-68
2022/10/29 10:52:20;;;;;;;9.57;8.97;;;;;;;16.30;53.82;93768.59;5087554;28;20200;-68
2022/10/29 10:54:57;;;;;;;9.50;8.80;;;;;;;16.49;53.20;93771.25;5070041;28;20197;-68
2022/10/29 10:57:33;;;;;;;9.83;9.23;;;;;;;16.58;53.44;93770.31;5067281;28;20201;-69
2022/10/29 11:00:02;;;;;;;8.87;8.27;;;;;;;16.47;54.09;93766.25;5075375;28;20251;-68
2022/10/29 11:02:49;;;;;;;10.17;9.53;;;;;;;16.71;52.36;93764.34;5076572;28;20208;-69
2022/10/29 11:05:19;;;;;;;8.60;8.03;;;;;;;16.58;53.78;93758.97;5066639;28;20202;-69
2022/10/29 11:07:53;;;;;;;9.60;9.00;;;;;;;16.68;53.17;93759.63;5065719;28;20207;-67
2022/10/29 11:10:25;;;;;;;9.40;8.70;;;;;;;16.65;52.98;93762.84;5068469;28;20199;-68
2022/10/29 11:12:55;;;;;;;9.93;9.23;;;;;;;16.75;51.94;93736.28;5070810;28;20181;-68
2022/10/29 11:15:35;;;;;;;9.47;8.80;;;;;;;17.13;50.04;93756.25;5071429;28;20173;-67
2022/10/29 11:18:10;;;;;;;9.70;9.20;;;;;;;16.73;51.13;93746.34;5071061;28;20238;-71
2022/10/29 11:20:40;;;;;;;9.73;9.07;;;;;;;16.58;52.45;93729.97;5070493;28;20231;-70
2022/10/29 11:23:15;;;;;;;9.90;9.30;;;;;;;16.44;53.22;93731.75;5071619;28;20244;-69
2022/10/29 11:25:47;;;;;;;9.90;9.00;;;;;;;16.46;54.28;93737.56;5075232;28;20270;-68
2022/10/29 11:28:29;;;;;;;11.37;10.30;;;;;;;16.46;53.07;93727.81;5078928;28;20313;-68
2022/10/29 11:31:09;;;;;;;10.93;9.93;;;;;;;16.04;52.78;93654.88;5070143;28;20200;-71
2022/10/29 11:33:56;;;;;;;11.07;10.37;;;;;;;16.85;51.08;93712.41;5077282;28;20234;-71
2022/10/29 11:36:24;;;;;;;10.03;9.03;;;;;;;16.88;49.52;93714.47;5089406;28;20184;-68
2022/10/29 11:38:56;;;;;;;9.80;9.20;;;;;;;17.03;50.12;93716.81;5084834;28;20228;-71
2022/10/29 11:41:47;;;;;;;9.97;9.37;;;;;;;17.13;49.81;93710.59;5077708;28;20209;-68